createdAt,value
2024-03-16T00:01:01.186Z,1.8
2024-03-16T00:06:07.628Z,2.3
2024-03-16T00:11:48.053Z,2.7
2024-03-16T00:16:30.990Z,1.5
2024-03-16T00:21:50.460Z,3.5
2024-03-16T00:26:43.721Z,2.9
2024-03-16T00:31:40.088Z,1.2
2024-03-16T00:36:46.530Z,4.0
2024-03-16T00:41:52.925Z,3.8
2024-03-16T00:47:09.389Z,3.5
2024-03-16T00:52:15.823Z,2.7
2024-03-16T00:57:22.135Z,4.4
2024-03-16T01:03:02.614Z,3.9
2024-03-16T01:07:34.924Z,2.7
2024-03-16T01:12:41.386Z,2.4
2024-03-16T01:17:47.754Z,2.7
2024-03-16T01:22:44.100Z,3.2
2024-03-16T01:27:49.711Z,1.4
2024-03-16T01:33:07.070Z,2.8
2024-03-16T01:38:03.618Z,1.8
2024-03-16T01:43:20.034Z,2.3
2024-03-16T01:48:26.490Z,2.3
2024-03-16T01:54:06.856Z,2.6
2024-03-16T01:58:29.199Z,3.4
2024-03-16T02:03:45.639Z,2.9
2024-03-16T02:08:42.005Z,2.2
2024-03-16T02:13:58.383Z,2.9
2024-03-16T02:18:54.817Z,1.3
2024-03-16T02:24:31.492Z,3.0
2024-03-16T02:29:17.873Z,3.5
2024-03-16T02:34:23.237Z,2.5
2024-03-16T02:39:34.690Z,3.4
2024-03-16T02:44:37.196Z,3.3
2024-03-16T02:50:11.868Z,5.2
2024-03-16T02:54:50.007Z,3.7
2024-03-16T02:59:56.395Z,5.0
2024-03-16T03:05:02.740Z,5.5
2024-03-16T03:10:09.574Z,4.2
2024-03-16T03:15:49.753Z,4.5
2024-03-16T03:20:57.166Z,4.9
2024-03-16T03:26:03.497Z,4.7
2024-03-16T03:31:29.949Z,4.3
2024-03-16T03:36:06.282Z,4.1
2024-03-16T03:41:22.684Z,3.8
2024-03-16T03:46:29.131Z,6.8
2024-03-16T03:52:43.894Z,5.7
2024-03-16T03:57:16.196Z,5.6
2024-03-16T04:02:13.599Z,5.8
2024-03-16T04:07:30.103Z,5.6
2024-03-16T04:12:36.572Z,5.0
2024-03-16T04:17:46.914Z,5.2
2024-03-16T04:22:49.241Z,3.6
2024-03-16T04:27:55.672Z,5.4
2024-03-16T04:33:01.292Z,2.8
2024-03-16T04:38:07.641Z,2.6
2024-03-16T04:43:15.020Z,4.9
2024-03-16T04:48:21.311Z,2.5
2024-03-16T04:53:28.741Z,1.5
2024-03-16T04:58:35.707Z,1.5
2024-03-16T05:04:10.243Z,1.9
2024-03-16T05:08:52.494Z,1.6
2024-03-16T05:14:29.218Z,0.7
2024-03-16T05:19:01.579Z,1.0
2024-03-16T05:24:27.336Z,1.1
2024-03-16T05:29:14.688Z,1.0
2024-03-16T05:34:22.713Z,0.6
2024-03-16T05:39:28.161Z,1.2
2024-03-16T05:44:35.584Z,0.9
2024-03-16T05:49:41.999Z,1.1
2024-03-16T05:54:48.444Z,1.1
2024-03-16T05:59:54.796Z,0.9
2024-03-16T06:05:01.200Z,1.1
2024-03-16T06:09:57.645Z,0.8
2024-03-16T06:15:13.931Z,1.5
2024-03-16T06:20:25.336Z,0.7
2024-03-16T06:25:26.744Z,1.2
2024-03-16T06:30:33.193Z,1.2
2024-03-16T06:35:43.606Z,0.6
2024-03-16T06:40:45.951Z,1.2
2024-03-16T06:45:56.341Z,1.1
2024-03-16T06:51:26.747Z,0.9
2024-03-16T06:56:05.059Z,0.7
2024-03-16T07:01:11.527Z,0.8
2024-03-16T07:06:38.039Z,1.1
2024-03-16T07:11:24.293Z,1.2
2024-03-16T07:16:30.728Z,1.2
2024-03-16T07:21:37.204Z,0.7
2024-03-16T07:27:07.600Z,1.9
2024-03-16T07:31:39.886Z,1.3
2024-03-16T07:37:30.913Z,1.7
2024-03-16T07:41:55.044Z,1.8
2024-03-16T07:47:10.650Z,1.5
2024-03-16T07:52:07.024Z,1.2
2024-03-16T07:57:23.486Z,1.6
2024-03-16T08:02:29.890Z,1.0
2024-03-16T08:07:35.358Z,1.1
2024-03-16T08:12:42.852Z,2.0
2024-03-16T08:17:49.171Z,1.1
2024-03-16T08:22:55.479Z,0.6
2024-03-16T08:28:05.967Z,1.3
2024-03-16T08:33:08.385Z,0.9
2024-03-16T08:38:18.698Z,2.7
2024-03-16T08:43:11.190Z,1.6
2024-03-16T08:48:27.661Z,1.0
2024-03-16T08:53:33.006Z,1.5
2024-03-16T08:58:40.372Z,2.1
2024-03-16T09:03:46.749Z,1.5
2024-03-16T09:09:18.708Z,3.9
2024-03-16T09:13:51.028Z,1.7
2024-03-16T09:19:10.556Z,2.5
2024-03-16T09:24:13.825Z,1.3
2024-03-16T09:29:20.185Z,1.9
2024-03-16T09:34:26.572Z,1.2
2024-03-16T09:39:33.044Z,2.1
2024-03-16T09:44:39.372Z,1.1
2024-03-16T09:49:35.777Z,1.2
2024-03-16T09:54:52.193Z,1.0
2024-03-16T09:59:57.553Z,1.9
2024-03-16T10:05:04.912Z,1.1
2024-03-16T10:10:15.468Z,0.8
2024-03-16T10:15:06.689Z,3.4
2024-03-16T10:20:24.125Z,0.8
2024-03-16T10:25:37.674Z,1.0
2024-03-16T10:30:40.869Z,3.2
2024-03-16T10:35:47.265Z,1.7
2024-03-16T10:40:49.636Z,0.8
2024-03-16T10:45:55.995Z,1.2
2024-03-16T10:51:08.030Z,1.0
2024-03-16T10:55:59.350Z,1.1
2024-03-16T11:01:36.777Z,1.1
2024-03-16T11:06:23.133Z,1.1
2024-03-16T11:11:28.628Z,0.8
2024-03-16T11:16:35.970Z,1.3
2024-03-16T11:21:32.375Z,1.2
2024-03-16T11:26:38.747Z,1.7
2024-03-16T11:31:55.248Z,1.5
2024-03-16T11:37:01.973Z,2.5
2024-03-16T11:42:08.283Z,1.0
2024-03-16T11:47:14.648Z,0.6
2024-03-16T11:52:46.481Z,1.2
2024-03-16T11:57:28.865Z,1.7
2024-03-16T12:03:09.330Z,0.8
2024-03-16T12:07:41.636Z,0.8
2024-03-16T12:12:48.204Z,2.1
2024-03-16T12:17:54.573Z,1.0
2024-03-16T12:23:00.944Z,0.7
2024-03-16T12:28:41.391Z,0.9
2024-03-16T12:33:02.675Z,0.7
2024-03-16T12:38:20.094Z,0.8
2024-03-16T12:43:30.041Z,0.9
2024-03-16T12:48:36.433Z,1.5
2024-03-16T12:53:42.798Z,1.2
2024-03-16T12:58:49.201Z,0.7
2024-03-16T13:03:57.359Z,1.2
2024-03-16T13:09:03.721Z,0.7
2024-03-16T13:14:54.314Z,0.8
2024-03-16T13:19:16.734Z,0.9
2024-03-16T13:24:23.082Z,1.2
2024-03-16T13:29:29.455Z,1.5
2024-03-16T13:34:35.868Z,1.2
2024-03-16T13:39:42.248Z,1.7
2024-03-16T13:44:38.563Z,1.1
2024-03-16T13:49:55.056Z,1.9
2024-03-16T13:54:51.414Z,0.8
2024-03-16T14:00:07.840Z,1.6
2024-03-16T14:05:14.269Z,0.9
2024-03-16T14:10:20.614Z,1.2
2024-03-16T14:16:02.310Z,1.5
2024-03-16T14:21:09.680Z,1.1
2024-03-16T14:26:23.776Z,1.6
2024-03-16T14:31:30.175Z,1.0
2024-03-16T14:36:37.306Z,2.1
2024-03-16T14:41:43.546Z,1.6
2024-03-16T14:46:49.889Z,1.2
2024-03-16T14:51:52.341Z,2.1
2024-03-16T14:57:04.209Z,2.4
2024-03-16T15:02:06.589Z,2.4
2024-03-16T15:07:12.977Z,0.7
2024-03-16T15:12:09.307Z,2.0
2024-03-16T15:17:27.439Z,0.7
2024-03-16T15:22:33.648Z,0.8
2024-03-16T15:28:17.294Z,0.9
2024-03-16T15:33:48.674Z,0.9
2024-03-16T15:38:55.766Z,1.0
2024-03-16T15:43:37.486Z,0.7
2024-03-16T15:48:43.819Z,1.4
2024-03-16T15:53:54.835Z,1.0
2024-03-16T15:58:57.219Z,0.9
2024-03-16T16:04:07.589Z,1.0
2024-03-16T16:09:17.551Z,0.7
2024-03-16T16:14:09.945Z,0.6
2024-03-16T16:19:30.575Z,1.5
2024-03-16T16:24:34.235Z,1.3
2024-03-16T16:29:40.661Z,1.6
2024-03-16T16:34:36.964Z,1.5
2024-03-16T16:40:17.478Z,2.0
2024-03-16T16:44:49.821Z,1.0
2024-03-16T16:50:06.219Z,1.2
2024-03-16T16:55:12.624Z,1.5
2024-03-16T17:00:21.166Z,0.9
2024-03-16T17:05:25.426Z,2.7
2024-03-16T17:10:31.789Z,1.6
2024-03-16T17:15:28.185Z,1.6
2024-03-16T17:20:44.557Z,3.5
2024-03-16T17:25:40.958Z,2.1
2024-03-16T17:30:47.362Z,2.1
2024-03-16T17:36:27.797Z,1.6
2024-03-16T17:41:10.163Z,1.3
2024-03-16T17:46:06.525Z,2.3
2024-03-16T17:51:21.865Z,1.6
2024-03-16T17:56:29.251Z,2.0
2024-03-16T18:01:43.217Z,2.4
2024-03-16T18:06:53.120Z,1.9
2024-03-16T18:11:59.501Z,1.1
2024-03-16T18:17:05.487Z,1.1
2024-03-16T18:22:11.826Z,1.4
2024-03-16T18:27:23.777Z,1.8
2024-03-16T18:32:26.160Z,2.3
2024-03-16T18:37:32.525Z,2.0
2024-03-16T18:52:02.633Z,1.9
2024-03-16T18:57:09.207Z,0.7
2024-03-16T19:02:17.528Z,2.1
2024-03-16T19:07:25.824Z,2.1
2024-03-16T19:20:55.456Z,2.7
2024-03-16T19:36:16.227Z,2.1
2024-03-16T19:40:49.722Z,2.5
2024-03-16T19:45:56.243Z,3.5
2024-03-16T19:52:16.477Z,2.9
2024-03-16T19:58:38.190Z,2.1
2024-03-16T20:01:56.357Z,2.1
2024-03-16T20:07:21.817Z,2.5
2024-03-16T20:12:09.216Z,2.1
2024-03-16T20:17:15.594Z,2.1
2024-03-16T20:22:22.156Z,4.4
2024-03-16T20:27:28.419Z,2.9
2024-03-16T20:32:35.062Z,2.9
2024-03-16T20:37:41.400Z,2.0
2024-03-16T20:42:48.090Z,2.5
2024-03-16T20:48:14.650Z,2.4
2024-03-16T20:53:01.006Z,3.3
2024-03-16T20:58:11.973Z,4.3
2024-03-16T21:08:30.584Z,4.4
2024-03-16T21:13:28.012Z,4.7
2024-03-16T21:18:44.536Z,3.7
2024-03-16T21:23:41.998Z,4.1
2024-03-16T21:28:58.425Z,2.2
2024-03-16T21:34:04.765Z,1.7
2024-03-16T21:39:11.153Z,2.2
2024-03-16T21:44:07.545Z,1.7
2024-03-16T21:49:23.915Z,2.8
2024-03-16T21:55:19.545Z,1.8
2024-03-16T22:01:35.043Z,2.8
2024-03-16T22:06:42.369Z,6.7
2024-03-16T22:12:08.857Z,3.7
2024-03-16T22:18:40.846Z,5.0
2024-03-16T22:22:31.116Z,5.1
2024-03-16T22:27:51.053Z,4.0
2024-03-16T22:32:55.406Z,5.5
2024-03-16T22:38:02.228Z,3.2
2024-03-16T22:43:16.260Z,3.5
2024-03-16T22:48:16.019Z,3.5
2024-03-16T22:53:26.004Z,3.4
2024-03-16T22:58:32.346Z,4.7
2024-03-16T23:03:39.892Z,3.0
2024-03-16T23:08:46.241Z,3.4
2024-03-16T23:20:07.379Z,3.4
2024-03-16T23:24:40.870Z,3.4
2024-03-16T23:29:46.237Z,3.0
2024-03-16T23:34:53.649Z,3.0
2024-03-16T23:40:00.391Z,3.2
2024-03-16T23:45:26.680Z,5.1
2024-03-16T23:50:13.039Z,3.7
2024-03-16T23:55:19.481Z,2.1
